sensor_id;sensor_type;location;lat;lon;timestamp;P1;durP1;ratioP1;P2;durP2;ratioP2
21305;SDS011;10812;51.838;5.838;2023-04-25T00:02:04;6.13;;;2.13;;
21305;SDS011;10812;51.838;5.838;2023-04-25T00:04:33;6.00;;;2.07;;
21305;SDS011;10812;51.838;5.838;2023-04-25T00:07:01;5.77;;;2.47;;
21305;SDS011;10812;51.838;5.838;2023-04-25T00:09:30;5.40;;;2.53;;
21305;SDS011;10812;51.838;5.838;2023-04-25T00:11:59;6.10;;;2.47;;
21305;SDS011;10812;51.838;5.838;2023-04-25T00:14:29;5.00;;;2.37;;
21305;SDS011;10812;51.838;5.838;2023-04-25T00:17:00;8.63;;;2.53;;
21305;SDS011;10812;51.838;5.838;2023-04-25T00:19:28;5.97;;;2.10;;
21305;SDS011;10812;51.838;5.838;2023-04-25T00:21:57;6.43;;;2.60;;
21305;SDS011;10812;51.838;5.838;2023-04-25T00:24:25;6.17;;;2.83;;
21305;SDS011;10812;51.838;5.838;2023-04-25T00:26:53;6.73;;;2.40;;
21305;SDS011;10812;51.838;5.838;2023-04-25T00:29:21;7.00;;;2.70;;
21305;SDS011;10812;51.838;5.838;2023-04-25T00:31:50;5.57;;;2.43;;
21305;SDS011;10812;51.838;5.838;2023-04-25T00:34:19;5.63;;;2.47;;
21305;SDS011;10812;51.838;5.838;2023-04-25T00:36:47;5.57;;;2.60;;
21305;SDS011;10812;51.838;5.838;2023-04-25T00:39:15;9.63;;;2.27;;
21305;SDS011;10812;51.838;5.838;2023-04-25T00:41:43;8.07;;;2.40;;
21305;SDS011;10812;51.838;5.838;2023-04-25T00:44:12;7.97;;;3.30;;
21305;SDS011;10812;51.838;5.838;2023-04-25T00:46:43;8.77;;;2.70;;
21305;SDS011;10812;51.838;5.838;2023-04-25T00:49:13;8.20;;;3.37;;
21305;SDS011;10812;51.838;5.838;2023-04-25T00:51:43;7.60;;;2.53;;
21305;SDS011;10812;51.838;5.838;2023-04-25T00:54:12;7.83;;;2.63;;
21305;SDS011;10812;51.838;5.838;2023-04-25T01:12:07;14.90;;;4.57;;
21305;SDS011;10812;51.838;5.838;2023-04-25T01:14:35;7.50;;;2.97;;
21305;SDS011;10812;51.838;5.838;2023-04-25T01:17:04;9.80;;;2.90;;
21305;SDS011;10812;51.838;5.838;2023-04-25T01:19:34;9.77;;;3.40;;
21305;SDS011;10812;51.838;5.838;2023-04-25T01:22:04;7.43;;;3.73;;
21305;SDS011;10812;51.838;5.838;2023-04-25T01:24:32;13.87;;;3.93;;
21305;SDS011;10812;51.838;5.838;2023-04-25T01:27:00;11.23;;;3.67;;
21305;SDS011;10812;51.838;5.838;2023-04-25T01:29:30;7.73;;;3.53;;
21305;SDS011;10812;51.838;5.838;2023-04-25T01:31:59;9.60;;;4.03;;
21305;SDS011;10812;51.838;5.838;2023-04-25T01:34:28;8.67;;;3.90;;
21305;SDS011;10812;51.838;5.838;2023-04-25T01:36:57;6.97;;;3.67;;
21305;SDS011;10812;51.838;5.838;2023-04-25T01:39:28;9.87;;;3.97;;
21305;SDS011;10812;51.838;5.838;2023-04-25T01:41:58;12.77;;;4.50;;
21305;SDS011;10812;51.838;5.838;2023-04-25T01:44:27;7.40;;;3.37;;
21305;SDS011;10812;51.838;5.838;2023-04-25T01:46:56;10.23;;;4.33;;
21305;SDS011;10812;51.838;5.838;2023-04-25T01:49:24;10.47;;;4.63;;
21305;SDS011;10812;51.838;5.838;2023-04-25T01:51:52;8.00;;;3.70;;
21305;SDS011;10812;51.838;5.838;2023-04-25T01:54:20;5.30;;;3.30;;
21305;SDS011;10812;51.838;5.838;2023-04-25T01:56:51;12.03;;;3.63;;
21305;SDS011;10812;51.838;5.838;2023-04-25T02:06:02;7.23;;;3.30;;
21305;SDS011;10812;51.838;5.838;2023-04-25T02:08:30;11.50;;;3.73;;
21305;SDS011;10812;51.838;5.838;2023-04-25T02:10:59;10.93;;;4.23;;
21305;SDS011;10812;51.838;5.838;2023-04-25T02:13:30;11.03;;;3.90;;
21305;SDS011;10812;51.838;5.838;2023-04-25T02:15:58;10.67;;;4.30;;
21305;SDS011;10812;51.838;5.838;2023-04-25T02:18:27;8.83;;;4.30;;
21305;SDS011;10812;51.838;5.838;2023-04-25T02:20:55;12.67;;;4.93;;
21305;SDS011;10812;51.838;5.838;2023-04-25T02:23:23;12.70;;;4.27;;
21305;SDS011;10812;51.838;5.838;2023-04-25T02:25:51;13.83;;;4.47;;
21305;SDS011;10812;51.838;5.838;2023-04-25T02:28:21;10.77;;;4.23;;
21305;SDS011;10812;51.838;5.838;2023-04-25T02:30:51;9.50;;;4.07;;
21305;SDS011;10812;51.838;5.838;2023-04-25T02:33:20;10.40;;;4.10;;
21305;SDS011;10812;51.838;5.838;2023-04-25T02:35:48;10.83;;;4.07;;
21305;SDS011;10812;51.838;5.838;2023-04-25T02:38:16;14.37;;;4.60;;
21305;SDS011;10812;51.838;5.838;2023-04-25T02:40:44;8.97;;;4.07;;
21305;SDS011;10812;51.838;5.838;2023-04-25T02:43:12;10.47;;;4.30;;
21305;SDS011;10812;51.838;5.838;2023-04-25T02:45:40;11.03;;;4.13;;
21305;SDS011;10812;51.838;5.838;2023-04-25T02:48:10;9.93;;;4.13;;
21305;SDS011;10812;51.838;5.838;2023-04-25T02:50:38;12.57;;;4.80;;
21305;SDS011;10812;51.838;5.838;2023-04-25T02:53:06;7.37;;;4.70;;
21305;SDS011;10812;51.838;5.838;2023-04-25T02:55:34;17.03;;;4.83;;
21305;SDS011;10812;51.838;5.838;2023-04-25T02:58:02;9.57;;;4.27;;
21305;SDS011;10812;51.838;5.838;2023-04-25T03:08:20;10.87;;;5.37;;
21305;SDS011;10812;51.838;5.838;2023-04-25T03:10:49;12.40;;;4.63;;
21305;SDS011;10812;51.838;5.838;2023-04-25T03:13:18;17.77;;;5.13;;
21305;SDS011;10812;51.838;5.838;2023-04-25T03:15:46;12.97;;;4.80;;
21305;SDS011;10812;51.838;5.838;2023-04-25T03:18:14;12.60;;;4.80;;
21305;SDS011;10812;51.838;5.838;2023-04-25T03:20:42;12.60;;;4.80;;
21305;SDS011;10812;51.838;5.838;2023-04-25T03:23:10;11.13;;;5.47;;
21305;SDS011;10812;51.838;5.838;2023-04-25T03:25:40;17.10;;;5.20;;
21305;SDS011;10812;51.838;5.838;2023-04-25T03:28:08;13.10;;;5.47;;
21305;SDS011;10812;51.838;5.838;2023-04-25T03:30:36;9.37;;;4.30;;
21305;SDS011;10812;51.838;5.838;2023-04-25T03:33:04;16.40;;;5.37;;
21305;SDS011;10812;51.838;5.838;2023-04-25T03:35:33;11.73;;;4.73;;
21305;SDS011;10812;51.838;5.838;2023-04-25T03:38:01;11.70;;;4.47;;
21305;SDS011;10812;51.838;5.838;2023-04-25T03:40:29;13.40;;;4.83;;
21305;SDS011;10812;51.838;5.838;2023-04-25T03:42:59;16.13;;;4.83;;
21305;SDS011;10812;51.838;5.838;2023-04-25T03:45:27;18.10;;;5.80;;
21305;SDS011;10812;51.838;5.838;2023-04-25T03:47:55;14.00;;;5.30;;
21305;SDS011;10812;51.838;5.838;2023-04-25T03:50:23;18.97;;;5.03;;
21305;SDS011;10812;51.838;5.838;2023-04-25T03:52:51;16.80;;;5.70;;
21305;SDS011;10812;51.838;5.838;2023-04-25T03:55:19;12.50;;;4.97;;
21305;SDS011;10812;51.838;5.838;2023-04-25T03:57:48;13.13;;;4.93;;
21305;SDS011;10812;51.838;5.838;2023-04-25T04:00:17;17.03;;;5.87;;
21305;SDS011;10812;51.838;5.838;2023-04-25T04:02:45;18.03;;;5.97;;
21305;SDS011;10812;51.838;5.838;2023-04-25T04:05:13;14.70;;;5.23;;
21305;SDS011;10812;51.838;5.838;2023-04-25T04:07:42;19.60;;;5.40;;
21305;SDS011;10812;51.838;5.838;2023-04-25T04:10:10;15.83;;;5.57;;
21305;SDS011;10812;51.838;5.838;2023-04-25T04:12:39;16.90;;;5.50;;
21305;SDS011;10812;51.838;5.838;2023-04-25T04:15:07;18.67;;;5.93;;
21305;SDS011;10812;51.838;5.838;2023-04-25T04:17:37;19.83;;;5.43;;
21305;SDS011;10812;51.838;5.838;2023-04-25T04:20:07;14.00;;;5.40;;
21305;SDS011;10812;51.838;5.838;2023-04-25T04:22:36;14.87;;;4.80;;
21305;SDS011;10812;51.838;5.838;2023-04-25T04:25:04;13.90;;;5.53;;
21305;SDS011;10812;51.838;5.838;2023-04-25T04:27:33;12.53;;;4.83;;
21305;SDS011;10812;51.838;5.838;2023-04-25T04:30:01;14.47;;;5.93;;
21305;SDS011;10812;51.838;5.838;2023-04-25T04:32:30;14.63;;;5.23;;
21305;SDS011;10812;51.838;5.838;2023-04-25T04:35:02;12.33;;;5.13;;
21305;SDS011;10812;51.838;5.838;2023-04-25T04:37:31;14.67;;;6.10;;
21305;SDS011;10812;51.838;5.838;2023-04-25T04:39:59;12.17;;;4.80;;
21305;SDS011;10812;51.838;5.838;2023-04-25T04:42:32;19.27;;;5.57;;
21305;SDS011;10812;51.838;5.838;2023-04-25T04:45:00;14.13;;;5.30;;
21305;SDS011;10812;51.838;5.838;2023-04-25T04:47:29;11.70;;;5.40;;
21305;SDS011;10812;51.838;5.838;2023-04-25T04:49:57;14.20;;;4.93;;
21305;SDS011;10812;51.838;5.838;2023-04-25T04:52:26;18.23;;;5.43;;
21305;SDS011;10812;51.838;5.838;2023-04-25T04:54:55;12.27;;;4.40;;
21305;SDS011;10812;51.838;5.838;2023-04-25T04:57:23;15.37;;;4.80;;
21305;SDS011;10812;51.838;5.838;2023-04-25T04:59:51;11.93;;;4.90;;
21305;SDS011;10812;51.838;5.838;2023-04-25T05:02:19;12.13;;;4.90;;
21305;SDS011;10812;51.838;5.838;2023-04-25T05:04:47;13.40;;;4.80;;
21305;SDS011;10812;51.838;5.838;2023-04-25T05:07:16;7.93;;;4.53;;
21305;SDS011;10812;51.838;5.838;2023-04-25T05:09:46;15.17;;;5.03;;
21305;SDS011;10812;51.838;5.838;2023-04-25T05:12:14;15.53;;;4.60;;
21305;SDS011;10812;51.838;5.838;2023-04-25T05:14:42;8.43;;;3.63;;
21305;SDS011;10812;51.838;5.838;2023-04-25T05:17:10;12.97;;;4.60;;
21305;SDS011;10812;51.838;5.838;2023-04-25T05:19:38;10.90;;;3.40;;
21305;SDS011;10812;51.838;5.838;2023-04-25T05:22:06;11.33;;;3.67;;
21305;SDS011;10812;51.838;5.838;2023-04-25T05:24:35;10.53;;;3.90;;
21305;SDS011;10812;51.838;5.838;2023-04-25T05:27:04;11.73;;;3.40;;
21305;SDS011;10812;51.838;5.838;2023-04-25T05:29:32;6.87;;;3.63;;
21305;SDS011;10812;51.838;5.838;2023-04-25T05:32:01;11.40;;;4.03;;
21305;SDS011;10812;51.838;5.838;2023-04-25T05:34:29;11.10;;;3.23;;
21305;SDS011;10812;51.838;5.838;2023-04-25T05:43:46;6.67;;;2.90;;
21305;SDS011;10812;51.838;5.838;2023-04-25T05:46:16;8.30;;;3.00;;
21305;SDS011;10812;51.838;5.838;2023-04-25T05:48:44;9.50;;;2.77;;
21305;SDS011;10812;51.838;5.838;2023-04-25T05:51:13;9.37;;;2.70;;
21305;SDS011;10812;51.838;5.838;2023-04-25T05:53:41;9.53;;;3.77;;
21305;SDS011;10812;51.838;5.838;2023-04-25T05:56:09;9.73;;;4.53;;
21305;SDS011;10812;51.838;5.838;2023-04-25T05:58:37;6.53;;;2.40;;
21305;SDS011;10812;51.838;5.838;2023-04-25T06:01:07;13.53;;;2.93;;
21305;SDS011;10812;51.838;5.838;2023-04-25T06:03:35;8.67;;;2.60;;
21305;SDS011;10812;51.838;5.838;2023-04-25T06:06:05;6.80;;;2.13;;
21305;SDS011;10812;51.838;5.838;2023-04-25T06:08:33;8.60;;;2.00;;
21305;SDS011;10812;51.838;5.838;2023-04-25T06:11:02;5.50;;;2.13;;
21305;SDS011;10812;51.838;5.838;2023-04-25T06:13:30;8.93;;;2.40;;
21305;SDS011;10812;51.838;5.838;2023-04-25T06:15:58;9.10;;;2.47;;
21305;SDS011;10812;51.838;5.838;2023-04-25T06:18:28;5.83;;;2.57;;
21305;SDS011;10812;51.838;5.838;2023-04-25T06:20:56;5.10;;;1.67;;
21305;SDS011;10812;51.838;5.838;2023-04-25T06:23:24;4.93;;;1.90;;
21305;SDS011;10812;51.838;5.838;2023-04-25T06:25:52;6.73;;;2.00;;
21305;SDS011;10812;51.838;5.838;2023-04-25T06:28:20;10.40;;;3.63;;
21305;SDS011;10812;51.838;5.838;2023-04-25T06:30:50;4.03;;;2.20;;
21305;SDS011;10812;51.838;5.838;2023-04-25T06:33:18;8.40;;;2.53;;
21305;SDS011;10812;51.838;5.838;2023-04-25T06:35:49;7.80;;;2.30;;
21305;SDS011;10812;51.838;5.838;2023-04-25T06:38:17;5.83;;;1.90;;
21305;SDS011;10812;51.838;5.838;2023-04-25T06:40:45;4.13;;;1.50;;
21305;SDS011;10812;51.838;5.838;2023-04-25T06:43:13;6.27;;;1.47;;
21305;SDS011;10812;51.838;5.838;2023-04-25T06:45:41;4.67;;;1.67;;
21305;SDS011;10812;51.838;5.838;2023-04-25T06:48:13;5.70;;;1.50;;
21305;SDS011;10812;51.838;5.838;2023-04-25T06:50:41;7.53;;;1.87;;
21305;SDS011;10812;51.838;5.838;2023-04-25T06:53:11;7.93;;;2.03;;
21305;SDS011;10812;51.838;5.838;2023-04-25T06:55:39;4.72;;;1.83;;
21305;SDS011;10812;51.838;5.838;2023-04-25T06:58:07;4.95;;;1.45;;
21305;SDS011;10812;51.838;5.838;2023-04-25T07:00:35;7.83;;;1.90;;
21305;SDS011;10812;51.838;5.838;2023-04-25T07:03:03;5.83;;;1.50;;
21305;SDS011;10812;51.838;5.838;2023-04-25T07:05:32;5.37;;;1.60;;
21305;SDS011;10812;51.838;5.838;2023-04-25T07:08:00;6.23;;;1.50;;
21305;SDS011;10812;51.838;5.838;2023-04-25T07:10:30;5.23;;;2.17;;
21305;SDS011;10812;51.838;5.838;2023-04-25T07:12:58;6.63;;;1.80;;
21305;SDS011;10812;51.838;5.838;2023-04-25T07:15:27;4.43;;;1.90;;
21305;SDS011;10812;51.838;5.838;2023-04-25T07:17:55;3.30;;;1.50;;
21305;SDS011;10812;51.838;5.838;2023-04-25T07:20:24;3.87;;;1.67;;
21305;SDS011;10812;51.838;5.838;2023-04-25T07:22:54;6.97;;;1.67;;
21305;SDS011;10812;51.838;5.838;2023-04-25T07:25:22;3.17;;;1.67;;
21305;SDS011;10812;51.838;5.838;2023-04-25T07:27:52;7.93;;;1.93;;
21305;SDS011;10812;51.838;5.838;2023-04-25T07:30:20;7.20;;;1.90;;
21305;SDS011;10812;51.838;5.838;2023-04-25T07:32:49;7.97;;;2.10;;
21305;SDS011;10812;51.838;5.838;2023-04-25T07:35:17;6.90;;;1.50;;
21305;SDS011;10812;51.838;5.838;2023-04-25T07:37:45;6.13;;;1.63;;
21305;SDS011;10812;51.838;5.838;2023-04-25T07:40:14;8.20;;;1.97;;
21305;SDS011;10812;51.838;5.838;2023-04-25T07:42:42;7.77;;;1.70;;
21305;SDS011;10812;51.838;5.838;2023-04-25T07:45:12;8.60;;;1.80;;
21305;SDS011;10812;51.838;5.838;2023-04-25T07:47:40;6.13;;;1.83;;
21305;SDS011;10812;51.838;5.838;2023-04-25T07:50:09;5.80;;;1.30;;
21305;SDS011;10812;51.838;5.838;2023-04-25T07:52:37;4.17;;;1.40;;
21305;SDS011;10812;51.838;5.838;2023-04-25T07:55:05;5.63;;;1.10;;
21305;SDS011;10812;51.838;5.838;2023-04-25T07:57:34;6.40;;;2.25;;
21305;SDS011;10812;51.838;5.838;2023-04-25T08:00:02;4.95;;;1.10;;
21305;SDS011;10812;51.838;5.838;2023-04-25T08:02:36;6.68;;;1.63;;
21305;SDS011;10812;51.838;5.838;2023-04-25T08:05:05;3.05;;;1.13;;
21305;SDS011;10812;51.838;5.838;2023-04-25T08:07:38;3.40;;;0.93;;
21305;SDS011;10812;51.838;5.838;2023-04-25T08:25:21;6.00;;;1.67;;
21305;SDS011;10812;51.838;5.838;2023-04-25T08:27:52;6.30;;;2.67;;
21305;SDS011;10812;51.838;5.838;2023-04-25T08:30:20;3.97;;;1.30;;
21305;SDS011;10812;51.838;5.838;2023-04-25T08:32:48;3.87;;;1.03;;
21305;SDS011;10812;51.838;5.838;2023-04-25T08:35:16;4.27;;;1.37;;
21305;SDS011;10812;51.838;5.838;2023-04-25T08:37:44;4.43;;;1.10;;
21305;SDS011;10812;51.838;5.838;2023-04-25T08:40:13;3.13;;;1.10;;
21305;SDS011;10812;51.838;5.838;2023-04-25T08:42:44;4.10;;;2.07;;
21305;SDS011;10812;51.838;5.838;2023-04-25T08:45:14;6.43;;;1.30;;
21305;SDS011;10812;51.838;5.838;2023-04-25T08:47:42;5.85;;;1.77;;
21305;SDS011;10812;51.838;5.838;2023-04-25T08:50:15;4.30;;;1.10;;
21305;SDS011;10812;51.838;5.838;2023-04-25T08:52:45;5.03;;;1.50;;
21305;SDS011;10812;51.838;5.838;2023-04-25T08:55:18;3.10;;;1.17;;
21305;SDS011;10812;51.838;5.838;2023-04-25T08:57:49;3.63;;;1.25;;
21305;SDS011;10812;51.838;5.838;2023-04-25T09:00:17;4.53;;;1.05;;
21305;SDS011;10812;51.838;5.838;2023-04-25T09:02:46;5.53;;;1.70;;
21305;SDS011;10812;51.838;5.838;2023-04-25T09:05:15;5.88;;;1.25;;
21305;SDS011;10812;51.838;5.838;2023-04-25T09:07:46;4.93;;;1.75;;
21305;SDS011;10812;51.838;5.838;2023-04-25T09:10:16;5.83;;;1.73;;
21305;SDS011;10812;51.838;5.838;2023-04-25T09:12:44;7.60;;;1.40;;
21305;SDS011;10812;51.838;5.838;2023-04-25T09:15:21;6.73;;;1.60;;
21305;SDS011;10812;51.838;5.838;2023-04-25T09:17:54;5.70;;;1.80;;
21305;SDS011;10812;51.838;5.838;2023-04-25T09:20:23;5.83;;;1.83;;
21305;SDS011;10812;51.838;5.838;2023-04-25T09:23:00;3.87;;;1.13;;
21305;SDS011;10812;51.838;5.838;2023-04-25T09:25:33;5.00;;;1.30;;
21305;SDS011;10812;51.838;5.838;2023-04-25T09:28:05;3.70;;;1.00;;
21305;SDS011;10812;51.838;5.838;2023-04-25T09:30:35;4.67;;;1.43;;
21305;SDS011;10812;51.838;5.838;2023-04-25T09:33:04;3.87;;;1.30;;
21305;SDS011;10812;51.838;5.838;2023-04-25T09:35:35;4.10;;;1.10;;
21305;SDS011;10812;51.838;5.838;2023-04-25T09:38:09;4.20;;;1.17;;
21305;SDS011;10812;51.838;5.838;2023-04-25T09:40:39;1.40;;;0.70;;
21305;SDS011;10812;51.838;5.838;2023-04-25T09:43:12;1.73;;;0.70;;
21305;SDS011;10812;51.838;5.838;2023-04-25T09:45:48;2.33;;;0.60;;
21305;SDS011;10812;51.838;5.838;2023-04-25T09:48:18;2.33;;;0.90;;
21305;SDS011;10812;51.838;5.838;2023-04-25T09:50:51;5.13;;;0.70;;
21305;SDS011;10812;51.838;5.838;2023-04-25T09:53:32;5.60;;;0.73;;
21305;SDS011;10812;51.838;5.838;2023-04-25T09:56:02;2.03;;;0.70;;
21305;SDS011;10812;51.838;5.838;2023-04-25T09:58:33;2.97;;;1.10;;
21305;SDS011;10812;51.838;5.838;2023-04-25T10:01:03;3.93;;;0.90;;
21305;SDS011;10812;51.838;5.838;2023-04-25T10:03:34;1.60;;;0.80;;
21305;SDS011;10812;51.838;5.838;2023-04-25T10:06:06;2.07;;;0.70;;
21305;SDS011;10812;51.838;5.838;2023-04-25T10:08:36;4.00;;;0.80;;
21305;SDS011;10812;51.838;5.838;2023-04-25T10:14:47;1.43;;;0.60;;
21305;SDS011;10812;51.838;5.838;2023-04-25T10:17:17;4.10;;;1.00;;
21305;SDS011;10812;51.838;5.838;2023-04-25T10:19:47;2.10;;;0.90;;
21305;SDS011;10812;51.838;5.838;2023-04-25T10:22:17;3.23;;;0.80;;
21305;SDS011;10812;51.838;5.838;2023-04-25T10:24:50;5.13;;;1.10;;
21305;SDS011;10812;51.838;5.838;2023-04-25T10:27:19;4.40;;;0.93;;
21305;SDS011;10812;51.838;5.838;2023-04-25T10:29:52;2.90;;;0.60;;
21305;SDS011;10812;51.838;5.838;2023-04-25T10:32:31;2.87;;;0.80;;
21305;SDS011;10812;51.838;5.838;2023-04-25T10:35:09;2.60;;;0.40;;
21305;SDS011;10812;51.838;5.838;2023-04-25T10:40:25;4.80;;;1.30;;
21305;SDS011;10812;51.838;5.838;2023-04-25T10:42:54;4.93;;;1.20;;
21305;SDS011;10812;51.838;5.838;2023-04-25T10:45:23;4.00;;;1.00;;
21305;SDS011;10812;51.838;5.838;2023-04-25T10:47:53;3.07;;;0.77;;
21305;SDS011;10812;51.838;5.838;2023-04-25T10:50:22;7.13;;;1.30;;
21305;SDS011;10812;51.838;5.838;2023-04-25T10:53:13;6.90;;;1.20;;
21305;SDS011;10812;51.838;5.838;2023-04-25T10:55:49;2.57;;;0.90;;
21305;SDS011;10812;51.838;5.838;2023-04-25T10:58:20;3.80;;;0.83;;
21305;SDS011;10812;51.838;5.838;2023-04-25T11:00:50;4.60;;;1.00;;
21305;SDS011;10812;51.838;5.838;2023-04-25T11:03:24;3.60;;;1.00;;
21305;SDS011;10812;51.838;5.838;2023-04-25T11:05:53;4.40;;;0.90;;
21305;SDS011;10812;51.838;5.838;2023-04-25T11:08:25;4.07;;;0.97;;
21305;SDS011;10812;51.838;5.838;2023-04-25T11:11:07;2.73;;;0.97;;
21305;SDS011;10812;51.838;5.838;2023-04-25T11:13:35;4.23;;;0.97;;
21305;SDS011;10812;51.838;5.838;2023-04-25T11:16:06;2.17;;;1.20;;
21305;SDS011;10812;51.838;5.838;2023-04-25T11:18:42;3.33;;;1.07;;
21305;SDS011;10812;51.838;5.838;2023-04-25T11:21:10;4.43;;;0.90;;
21305;SDS011;10812;51.838;5.838;2023-04-25T11:23:38;7.33;;;1.23;;
21305;SDS011;10812;51.838;5.838;2023-04-25T11:26:07;3.93;;;0.97;;
21305;SDS011;10812;51.838;5.838;2023-04-25T11:28:35;3.67;;;1.30;;
21305;SDS011;10812;51.838;5.838;2023-04-25T11:31:06;4.93;;;1.20;;
21305;SDS011;10812;51.838;5.838;2023-04-25T11:33:38;1.57;;;0.70;;
21305;SDS011;10812;51.838;5.838;2023-04-25T11:36:08;6.67;;;1.27;;
21305;SDS011;10812;51.838;5.838;2023-04-25T11:38:37;3.20;;;1.00;;
21305;SDS011;10812;51.838;5.838;2023-04-25T11:41:06;4.13;;;0.97;;
21305;SDS011;10812;51.838;5.838;2023-04-25T11:43:35;1.97;;;0.90;;
21305;SDS011;10812;51.838;5.838;2023-04-25T11:46:06;1.90;;;0.87;;
21305;SDS011;10812;51.838;5.838;2023-04-25T11:48:36;2.03;;;0.80;;
21305;SDS011;10812;51.838;5.838;2023-04-25T11:51:05;3.87;;;1.37;;
21305;SDS011;10812;51.838;5.838;2023-04-25T11:53:35;1.97;;;0.73;;
21305;SDS011;10812;51.838;5.838;2023-04-25T11:56:08;1.60;;;0.53;;
21305;SDS011;10812;51.838;5.838;2023-04-25T12:01:27;2.57;;;1.00;;
21305;SDS011;10812;51.838;5.838;2023-04-25T12:04:09;4.23;;;0.77;;
21305;SDS011;10812;51.838;5.838;2023-04-25T12:06:40;3.23;;;0.80;;
21305;SDS011;10812;51.838;5.838;2023-04-25T12:09:11;3.43;;;1.23;;
21305;SDS011;10812;51.838;5.838;2023-04-25T12:11:44;2.23;;;0.83;;
21305;SDS011;10812;51.838;5.838;2023-04-25T12:14:20;2.47;;;0.70;;
21305;SDS011;10812;51.838;5.838;2023-04-25T12:16:50;4.33;;;0.93;;
21305;SDS011;10812;51.838;5.838;2023-04-25T12:19:19;1.67;;;0.73;;
21305;SDS011;10812;51.838;5.838;2023-04-25T12:21:48;1.53;;;0.80;;
21305;SDS011;10812;51.838;5.838;2023-04-25T12:24:25;3.13;;;1.17;;
21305;SDS011;10812;51.838;5.838;2023-04-25T12:26:58;3.43;;;0.70;;
21305;SDS011;10812;51.838;5.838;2023-04-25T12:29:29;2.97;;;0.63;;
21305;SDS011;10812;51.838;5.838;2023-04-25T12:32:13;1.57;;;0.70;;
21305;SDS011;10812;51.838;5.838;2023-04-25T12:34:42;2.57;;;1.17;;
21305;SDS011;10812;51.838;5.838;2023-04-25T12:37:13;1.97;;;0.90;;
21305;SDS011;10812;51.838;5.838;2023-04-25T12:39:43;3.97;;;0.90;;
21305;SDS011;10812;51.838;5.838;2023-04-25T12:42:14;2.47;;;0.70;;
21305;SDS011;10812;51.838;5.838;2023-04-25T12:44:45;3.73;;;1.10;;
21305;SDS011;10812;51.838;5.838;2023-04-25T12:47:14;4.67;;;0.90;;
21305;SDS011;10812;51.838;5.838;2023-04-25T12:49:42;5.77;;;1.47;;
21305;SDS011;10812;51.838;5.838;2023-04-25T12:52:10;2.00;;;0.97;;
21305;SDS011;10812;51.838;5.838;2023-04-25T12:54:38;3.03;;;1.00;;
21305;SDS011;10812;51.838;5.838;2023-04-25T12:57:08;2.10;;;0.70;;
21305;SDS011;10812;51.838;5.838;2023-04-25T12:59:37;3.63;;;0.80;;
21305;SDS011;10812;51.838;5.838;2023-04-25T13:02:06;3.77;;;1.10;;
21305;SDS011;10812;51.838;5.838;2023-04-25T13:04:34;2.53;;;0.70;;
21305;SDS011;10812;51.838;5.838;2023-04-25T13:07:02;3.83;;;1.10;;
21305;SDS011;10812;51.838;5.838;2023-04-25T13:09:31;2.93;;;1.00;;
21305;SDS011;10812;51.838;5.838;2023-04-25T13:11:59;3.57;;;0.87;;
21305;SDS011;10812;51.838;5.838;2023-04-25T13:14:29;2.00;;;0.40;;
21305;SDS011;10812;51.838;5.838;2023-04-25T13:16:57;1.73;;;0.90;;
21305;SDS011;10812;51.838;5.838;2023-04-25T13:27:08;4.10;;;0.93;;
21305;SDS011;10812;51.838;5.838;2023-04-25T13:29:37;1.90;;;0.60;;
21305;SDS011;10812;51.838;5.838;2023-04-25T13:51:34;3.00;;;0.83;;
21305;SDS011;10812;51.838;5.838;2023-04-25T13:54:02;3.93;;;0.77;;
